Hauptseite
METAR-TAF:

METAR-TAF

Flughäfen :

Flughafen Calais-Dunkerque

Calais, Frankreich

Breite: 50-57-39N, Länge: 001-57-05E, Höhe: 4 m

Beobachtung

Neuester Wetterbericht von vor 48 Minuten, um 15:30 UTC
Wind 10 kt aus Nord
Temperatur 16°C
Luftfeuchtigkeit 77%
Luftdruck 1006 hPa
Sichtweite 10 km oder mehr
Durchbrochene Bewölkung in der Höhe von 900 ft

METAR: LFAC 031530Z AUTO 01010KT 9999 BKN009 16/12 Q1006

Zeit: 18:18 (16:18 UTC)


TAF: fehlend

Wetterbeobachtungen und Prognosen von mehr als 4000 Flughäfen (METAR und TAF Bericht).

Die verfügbaren Stationen werden durch gelbe und rote Markierungen auf der Karte dargestellt.

Führen Sie die Maus auf sie, um den Namen der Station zu sehen.

Darauf klicken, um die Beobachtung von Wetterbeobachtungen und Prognosen zu sehen.

Um die Karte zu ändern : klicken Sie auf den grünen Tasten mit einem schwarzen Kreuz Zum Vergrößern, auf den grünen Button mit einem Gedankenstrich zu verkleinern, oder auf die grünen Pfeile für benachbarte Karten.


METAR-TAF: